sensor_id;sensor_type;location;lat;lon;timestamp;P1;durP1;ratioP1;P2;durP2;ratioP2
74495;SDS011;62979;55.720;37.606;2022-10-23T00:01:23;7.97;;;5.55;;
74495;SDS011;62979;55.720;37.606;2022-10-23T00:03:54;7.03;;;4.97;;
74495;SDS011;62979;55.720;37.606;2022-10-23T00:06:25;11.10;;;5.25;;
74495;SDS011;62979;55.720;37.606;2022-10-23T00:08:53;7.95;;;4.30;;
74495;SDS011;62979;55.720;37.606;2022-10-23T00:11:22;9.05;;;5.38;;
74495;SDS011;62979;55.720;37.606;2022-10-23T00:13:53;9.88;;;4.65;;
74495;SDS011;62979;55.720;37.606;2022-10-23T00:16:22;12.70;;;4.65;;
74495;SDS011;62979;55.720;37.606;2022-10-23T00:18:50;10.60;;;5.53;;
74495;SDS011;62979;55.720;37.606;2022-10-23T00:21:17;8.73;;;5.57;;
74495;SDS011;62979;55.720;37.606;2022-10-23T00:23:45;8.63;;;6.47;;
74495;SDS011;62979;55.720;37.606;2022-10-23T00:26:12;10.70;;;6.55;;
74495;SDS011;62979;55.720;37.606;2022-10-23T00:28:41;9.50;;;6.35;;
74495;SDS011;62979;55.720;37.606;2022-10-23T00:31:08;9.38;;;6.43;;
74495;SDS011;62979;55.720;37.606;2022-10-23T00:33:36;11.10;;;7.03;;
74495;SDS011;62979;55.720;37.606;2022-10-23T00:36:04;11.73;;;7.00;;
74495;SDS011;62979;55.720;37.606;2022-10-23T00:38:33;11.82;;;7.22;;
74495;SDS011;62979;55.720;37.606;2022-10-23T00:41:02;12.55;;;7.45;;
74495;SDS011;62979;55.720;37.606;2022-10-23T00:43:31;12.30;;;6.55;;
74495;SDS011;62979;55.720;37.606;2022-10-23T00:45:59;11.40;;;6.78;;
74495;SDS011;62979;55.720;37.606;2022-10-23T00:48:27;8.90;;;6.22;;
74495;SDS011;62979;55.720;37.606;2022-10-23T00:50:54;9.57;;;7.22;;
74495;SDS011;62979;55.720;37.606;2022-10-23T00:53:23;8.57;;;5.30;;
74495;SDS011;62979;55.720;37.606;2022-10-23T00:55:50;8.80;;;6.68;;
74495;SDS011;62979;55.720;37.606;2022-10-23T00:58:23;10.32;;;5.68;;
74495;SDS011;62979;55.720;37.606;2022-10-23T01:00:51;10.60;;;6.75;;
74495;SDS011;62979;55.720;37.606;2022-10-23T01:03:22;10.40;;;6.78;;
74495;SDS011;62979;55.720;37.606;2022-10-23T01:05:55;12.40;;;7.28;;
74495;SDS011;62979;55.720;37.606;2022-10-23T01:08:36;11.05;;;6.40;;
74495;SDS011;62979;55.720;37.606;2022-10-23T01:11:16;9.45;;;5.55;;
74495;SDS011;62979;55.720;37.606;2022-10-23T01:13:55;8.40;;;4.88;;
74495;SDS011;62979;55.720;37.606;2022-10-23T01:16:32;10.85;;;6.60;;
74495;SDS011;62979;55.720;37.606;2022-10-23T01:21:48;9.02;;;5.78;;
74495;SDS011;62979;55.720;37.606;2022-10-23T01:24:29;8.52;;;5.15;;
74495;SDS011;62979;55.720;37.606;2022-10-23T01:27:17;9.48;;;4.40;;
74495;SDS011;62979;55.720;37.606;2022-10-23T01:29:50;7.75;;;4.88;;
74495;SDS011;62979;55.720;37.606;2022-10-23T01:32:29;7.03;;;4.65;;
74495;SDS011;62979;55.720;37.606;2022-10-23T01:35:05;10.27;;;5.05;;
74495;SDS011;62979;55.720;37.606;2022-10-23T01:37:40;7.40;;;5.63;;
74495;SDS011;62979;55.720;37.606;2022-10-23T01:40:12;7.30;;;5.03;;
74495;SDS011;62979;55.720;37.606;2022-10-23T01:42:51;10.02;;;5.65;;
74495;SDS011;62979;55.720;37.606;2022-10-23T01:45:25;7.72;;;5.60;;
74495;SDS011;62979;55.720;37.606;2022-10-23T01:48:02;10.13;;;5.25;;
74495;SDS011;62979;55.720;37.606;2022-10-23T01:50:34;8.90;;;5.63;;
74495;SDS011;62979;55.720;37.606;2022-10-23T01:53:05;10.68;;;5.65;;
74495;SDS011;62979;55.720;37.606;2022-10-23T01:55:32;9.38;;;5.38;;
74495;SDS011;62979;55.720;37.606;2022-10-23T01:58:01;8.98;;;5.57;;
74495;SDS011;62979;55.720;37.606;2022-10-23T02:00:32;9.45;;;5.50;;
74495;SDS011;62979;55.720;37.606;2022-10-23T02:03:04;8.35;;;4.95;;
74495;SDS011;62979;55.720;37.606;2022-10-23T02:05:34;9.63;;;5.38;;
74495;SDS011;62979;55.720;37.606;2022-10-23T02:08:03;9.45;;;5.43;;
74495;SDS011;62979;55.720;37.606;2022-10-23T02:10:33;10.48;;;4.88;;
74495;SDS011;62979;55.720;37.606;2022-10-23T02:13:11;10.18;;;5.32;;
74495;SDS011;62979;55.720;37.606;2022-10-23T02:15:48;10.30;;;5.47;;
74495;SDS011;62979;55.720;37.606;2022-10-23T02:18:26;10.05;;;4.80;;
74495;SDS011;62979;55.720;37.606;2022-10-23T02:21:05;8.40;;;5.55;;
74495;SDS011;62979;55.720;37.606;2022-10-23T02:23:38;10.13;;;5.97;;
74495;SDS011;62979;55.720;37.606;2022-10-23T02:26:18;11.55;;;6.00;;
74495;SDS011;62979;55.720;37.606;2022-10-23T02:28:53;10.70;;;6.15;;
74495;SDS011;62979;55.720;37.606;2022-10-23T02:31:27;12.85;;;5.93;;
74495;SDS011;62979;55.720;37.606;2022-10-23T02:33:54;10.25;;;5.28;;
74495;SDS011;62979;55.720;37.606;2022-10-23T02:36:21;10.50;;;6.18;;
74495;SDS011;62979;55.720;37.606;2022-10-23T02:38:48;10.00;;;6.68;;
74495;SDS011;62979;55.720;37.606;2022-10-23T02:41:26;10.55;;;7.55;;
74495;SDS011;62979;55.720;37.606;2022-10-23T02:44:16;9.65;;;5.88;;
74495;SDS011;62979;55.720;37.606;2022-10-23T02:46:59;12.20;;;6.78;;
74495;SDS011;62979;55.720;37.606;2022-10-23T02:49:42;12.07;;;7.15;;
74495;SDS011;62979;55.720;37.606;2022-10-23T02:52:22;14.25;;;6.43;;
74495;SDS011;62979;55.720;37.606;2022-10-23T02:55:07;10.57;;;6.53;;
74495;SDS011;62979;55.720;37.606;2022-10-23T02:57:45;11.30;;;6.50;;
74495;SDS011;62979;55.720;37.606;2022-10-23T03:00:21;11.90;;;6.82;;
74495;SDS011;62979;55.720;37.606;2022-10-23T03:02:52;11.77;;;7.20;;
74495;SDS011;62979;55.720;37.606;2022-10-23T03:05:24;11.30;;;7.45;;
74495;SDS011;62979;55.720;37.606;2022-10-23T03:07:55;11.38;;;6.88;;
74495;SDS011;62979;55.720;37.606;2022-10-23T03:10:23;11.65;;;7.60;;
74495;SDS011;62979;55.720;37.606;2022-10-23T03:12:50;12.15;;;8.30;;
74495;SDS011;62979;55.720;37.606;2022-10-23T03:15:17;10.00;;;6.93;;
74495;SDS011;62979;55.720;37.606;2022-10-23T03:17:45;12.38;;;7.13;;
74495;SDS011;62979;55.720;37.606;2022-10-23T03:22:39;12.48;;;7.78;;
74495;SDS011;62979;55.720;37.606;2022-10-23T03:25:07;11.68;;;6.68;;
74495;SDS011;62979;55.720;37.606;2022-10-23T03:27:34;14.75;;;9.27;;
74495;SDS011;62979;55.720;37.606;2022-10-23T03:30:02;15.13;;;8.05;;
74495;SDS011;62979;55.720;37.606;2022-10-23T03:32:31;12.02;;;7.57;;
74495;SDS011;62979;55.720;37.606;2022-10-23T03:34:59;14.25;;;6.88;;
74495;SDS011;62979;55.720;37.606;2022-10-23T03:39:53;12.07;;;6.20;;
74495;SDS011;62979;55.720;37.606;2022-10-23T03:42:22;14.75;;;8.07;;
74495;SDS011;62979;55.720;37.606;2022-10-23T03:44:49;11.25;;;6.85;;
74495;SDS011;62979;55.720;37.606;2022-10-23T03:47:16;12.65;;;7.95;;
74495;SDS011;62979;55.720;37.606;2022-10-23T03:49:43;14.77;;;7.72;;
74495;SDS011;62979;55.720;37.606;2022-10-23T03:52:12;13.23;;;6.90;;
74495;SDS011;62979;55.720;37.606;2022-10-23T03:57:05;14.38;;;7.60;;
74495;SDS011;62979;55.720;37.606;2022-10-23T03:59:32;14.13;;;7.70;;
74495;SDS011;62979;55.720;37.606;2022-10-23T04:01:59;12.25;;;7.20;;
74495;SDS011;62979;55.720;37.606;2022-10-23T04:04:26;12.10;;;7.38;;
74495;SDS011;62979;55.720;37.606;2022-10-23T04:06:53;11.50;;;8.48;;
74495;SDS011;62979;55.720;37.606;2022-10-23T04:09:22;11.70;;;6.82;;
74495;SDS011;62979;55.720;37.606;2022-10-23T04:14:15;10.15;;;6.47;;
74495;SDS011;62979;55.720;37.606;2022-10-23T04:16:42;12.70;;;7.88;;
74495;SDS011;62979;55.720;37.606;2022-10-23T04:19:09;11.52;;;7.20;;
74495;SDS011;62979;55.720;37.606;2022-10-23T04:21:36;13.20;;;8.32;;
74495;SDS011;62979;55.720;37.606;2022-10-23T04:24:03;12.07;;;7.20;;
74495;SDS011;62979;55.720;37.606;2022-10-23T04:26:33;14.95;;;8.07;;
74495;SDS011;62979;55.720;37.606;2022-10-23T04:31:26;12.65;;;7.30;;
74495;SDS011;62979;55.720;37.606;2022-10-23T04:33:53;16.25;;;6.82;;
74495;SDS011;62979;55.720;37.606;2022-10-23T04:36:20;11.65;;;7.50;;
74495;SDS011;62979;55.720;37.606;2022-10-23T04:38:48;11.25;;;6.65;;
74495;SDS011;62979;55.720;37.606;2022-10-23T04:41:15;12.88;;;6.75;;
74495;SDS011;62979;55.720;37.606;2022-10-23T04:43:43;12.50;;;7.97;;
74495;SDS011;62979;55.720;37.606;2022-10-23T04:48:37;11.05;;;6.63;;
74495;SDS011;62979;55.720;37.606;2022-10-23T04:51:04;14.55;;;6.70;;
74495;SDS011;62979;55.720;37.606;2022-10-23T04:53:32;11.52;;;6.35;;
74495;SDS011;62979;55.720;37.606;2022-10-23T04:55:59;13.38;;;6.85;;
74495;SDS011;62979;55.720;37.606;2022-10-23T04:58:26;12.40;;;7.30;;
74495;SDS011;62979;55.720;37.606;2022-10-23T05:00:56;16.35;;;7.68;;
74495;SDS011;62979;55.720;37.606;2022-10-23T05:03:24;16.90;;;8.50;;
74495;SDS011;62979;55.720;37.606;2022-10-23T05:05:52;14.45;;;8.93;;
74495;SDS011;62979;55.720;37.606;2022-10-23T05:08:20;18.40;;;7.97;;
74495;SDS011;62979;55.720;37.606;2022-10-23T05:10:48;11.65;;;8.20;;
74495;SDS011;62979;55.720;37.606;2022-10-23T05:13:16;13.00;;;7.13;;
74495;SDS011;62979;55.720;37.606;2022-10-23T05:15:45;15.20;;;8.63;;
74495;SDS011;62979;55.720;37.606;2022-10-23T05:18:16;12.82;;;7.85;;
74495;SDS011;62979;55.720;37.606;2022-10-23T05:20:51;13.10;;;8.25;;
74495;SDS011;62979;55.720;37.606;2022-10-23T05:23:24;15.65;;;8.93;;
74495;SDS011;62979;55.720;37.606;2022-10-23T05:25:55;17.15;;;8.15;;
74495;SDS011;62979;55.720;37.606;2022-10-23T05:28:21;18.70;;;9.02;;
74495;SDS011;62979;55.720;37.606;2022-10-23T05:30:49;14.02;;;8.70;;
74495;SDS011;62979;55.720;37.606;2022-10-23T05:33:18;12.98;;;7.78;;
74495;SDS011;62979;55.720;37.606;2022-10-23T05:35:45;12.68;;;8.00;;
74495;SDS011;62979;55.720;37.606;2022-10-23T05:38:12;15.57;;;7.70;;
74495;SDS011;62979;55.720;37.606;2022-10-23T05:40:41;13.88;;;8.18;;
74495;SDS011;62979;55.720;37.606;2022-10-23T05:43:08;12.75;;;7.55;;
74495;SDS011;62979;55.720;37.606;2022-10-23T05:45:35;15.30;;;7.65;;
74495;SDS011;62979;55.720;37.606;2022-10-23T05:48:02;10.95;;;6.43;;
74495;SDS011;62979;55.720;37.606;2022-10-23T05:50:30;22.55;;;9.25;;
74495;SDS011;62979;55.720;37.606;2022-10-23T05:53:01;14.23;;;8.48;;
74495;SDS011;62979;55.720;37.606;2022-10-23T05:55:28;14.57;;;8.75;;
74495;SDS011;62979;55.720;37.606;2022-10-23T05:57:55;17.08;;;8.82;;
74495;SDS011;62979;55.720;37.606;2022-10-23T06:00:22;16.08;;;8.52;;
74495;SDS011;62979;55.720;37.606;2022-10-23T06:02:49;17.92;;;9.90;;
74495;SDS011;62979;55.720;37.606;2022-10-23T06:05:16;12.43;;;8.02;;
74495;SDS011;62979;55.720;37.606;2022-10-23T06:07:45;13.07;;;8.05;;
74495;SDS011;62979;55.720;37.606;2022-10-23T06:10:12;15.68;;;7.53;;
74495;SDS011;62979;55.720;37.606;2022-10-23T06:12:39;18.17;;;8.50;;
74495;SDS011;62979;55.720;37.606;2022-10-23T06:15:06;15.18;;;7.45;;
74495;SDS011;62979;55.720;37.606;2022-10-23T06:20:01;18.90;;;8.65;;
74495;SDS011;62979;55.720;37.606;2022-10-23T06:22:28;20.60;;;9.18;;
74495;SDS011;62979;55.720;37.606;2022-10-23T06:24:56;17.90;;;9.13;;
74495;SDS011;62979;55.720;37.606;2022-10-23T06:29:50;22.40;;;10.05;;
74495;SDS011;62979;55.720;37.606;2022-10-23T06:32:17;22.83;;;8.82;;
74495;SDS011;62979;55.720;37.606;2022-10-23T06:34:44;17.27;;;9.30;;
74495;SDS011;62979;55.720;37.606;2022-10-23T06:37:11;27.98;;;10.48;;
74495;SDS011;62979;55.720;37.606;2022-10-23T06:39:38;17.80;;;9.55;;
74495;SDS011;62979;55.720;37.606;2022-10-23T06:42:07;15.65;;;9.68;;
74495;SDS011;62979;55.720;37.606;2022-10-23T06:44:34;16.23;;;10.73;;
74495;SDS011;62979;55.720;37.606;2022-10-23T06:47:01;16.55;;;10.63;;
74495;SDS011;62979;55.720;37.606;2022-10-23T06:49:28;19.95;;;10.95;;
74495;SDS011;62979;55.720;37.606;2022-10-23T06:51:55;19.05;;;10.23;;
74495;SDS011;62979;55.720;37.606;2022-10-23T06:54:22;21.30;;;9.18;;
74495;SDS011;62979;55.720;37.606;2022-10-23T06:56:49;15.80;;;9.82;;
74495;SDS011;62979;55.720;37.606;2022-10-23T07:01:45;17.02;;;8.88;;
74495;SDS011;62979;55.720;37.606;2022-10-23T07:04:12;12.23;;;7.72;;
74495;SDS011;62979;55.720;37.606;2022-10-23T07:06:40;18.38;;;10.93;;
74495;SDS011;62979;55.720;37.606;2022-10-23T07:09:07;17.50;;;9.63;;
74495;SDS011;62979;55.720;37.606;2022-10-23T07:11:35;17.17;;;10.38;;
74495;SDS011;62979;55.720;37.606;2022-10-23T07:14:02;22.13;;;10.52;;
74495;SDS011;62979;55.720;37.606;2022-10-23T07:16:31;17.27;;;9.38;;
74495;SDS011;62979;55.720;37.606;2022-10-23T07:18:58;16.63;;;10.20;;
74495;SDS011;62979;55.720;37.606;2022-10-23T07:21:26;17.48;;;9.00;;
74495;SDS011;62979;55.720;37.606;2022-10-23T07:23:56;16.67;;;10.50;;
74495;SDS011;62979;55.720;37.606;2022-10-23T07:26:24;17.70;;;10.43;;
74495;SDS011;62979;55.720;37.606;2022-10-23T07:28:51;21.33;;;9.18;;
74495;SDS011;62979;55.720;37.606;2022-10-23T07:31:19;13.35;;;7.65;;
74495;SDS011;62979;55.720;37.606;2022-10-23T07:36:16;19.77;;;11.13;;
74495;SDS011;62979;55.720;37.606;2022-10-23T07:38:44;18.08;;;11.05;;
74495;SDS011;62979;55.720;37.606;2022-10-23T07:41:11;22.30;;;10.35;;
74495;SDS011;62979;55.720;37.606;2022-10-23T07:43:39;21.20;;;11.80;;
74495;SDS011;62979;55.720;37.606;2022-10-23T07:46:06;21.23;;;11.77;;
74495;SDS011;62979;55.720;37.606;2022-10-23T07:48:34;20.65;;;11.93;;
74495;SDS011;62979;55.720;37.606;2022-10-23T07:51:03;21.02;;;11.45;;
74495;SDS011;62979;55.720;37.606;2022-10-23T07:53:35;20.05;;;10.40;;
74495;SDS011;62979;55.720;37.606;2022-10-23T07:56:03;18.42;;;11.35;;
74495;SDS011;62979;55.720;37.606;2022-10-23T07:58:39;20.95;;;11.27;;
74495;SDS011;62979;55.720;37.606;2022-10-23T08:01:12;20.98;;;12.40;;
74495;SDS011;62979;55.720;37.606;2022-10-23T08:03:44;20.25;;;11.88;;
74495;SDS011;62979;55.720;37.606;2022-10-23T08:06:13;19.75;;;11.02;;
74495;SDS011;62979;55.720;37.606;2022-10-23T08:08:40;16.98;;;10.65;;
74495;SDS011;62979;55.720;37.606;2022-10-23T08:11:08;22.63;;;12.23;;
74495;SDS011;62979;55.720;37.606;2022-10-23T08:13:39;25.02;;;11.65;;
74495;SDS011;62979;55.720;37.606;2022-10-23T08:16:06;25.00;;;11.73;;
74495;SDS011;62979;55.720;37.606;2022-10-23T08:18:33;21.63;;;12.88;;
74495;SDS011;62979;55.720;37.606;2022-10-23T08:21:01;20.80;;;11.23;;
74495;SDS011;62979;55.720;37.606;2022-10-23T08:23:31;21.75;;;11.35;;
74495;SDS011;62979;55.720;37.606;2022-10-23T08:25:58;24.23;;;11.20;;
74495;SDS011;62979;55.720;37.606;2022-10-23T08:28:29;21.50;;;12.48;;
74495;SDS011;62979;55.720;37.606;2022-10-23T08:30:57;22.63;;;11.90;;
74495;SDS011;62979;55.720;37.606;2022-10-23T08:33:32;22.00;;;11.32;;
74495;SDS011;62979;55.720;37.606;2022-10-23T08:35:59;24.88;;;11.60;;
74495;SDS011;62979;55.720;37.606;2022-10-23T08:38:26;15.77;;;8.40;;
74495;SDS011;62979;55.720;37.606;2022-10-23T08:40:55;24.80;;;12.40;;
74495;SDS011;62979;55.720;37.606;2022-10-23T08:43:26;24.20;;;13.60;;
74495;SDS011;62979;55.720;37.606;2022-10-23T08:46:03;22.60;;;11.88;;
74495;SDS011;62979;55.720;37.606;2022-10-23T08:48:38;23.98;;;12.82;;
74495;SDS011;62979;55.720;37.606;2022-10-23T08:51:15;25.52;;;12.60;;
74495;SDS011;62979;55.720;37.606;2022-10-23T08:53:49;27.92;;;12.27;;
74495;SDS011;62979;55.720;37.606;2022-10-23T08:56:27;25.08;;;12.52;;
74495;SDS011;62979;55.720;37.606;2022-10-23T08:59:00;26.25;;;12.05;;
74495;SDS011;62979;55.720;37.606;2022-10-23T09:01:39;25.80;;;12.63;;
74495;SDS011;62979;55.720;37.606;2022-10-23T09:04:12;29.92;;;13.52;;
74495;SDS011;62979;55.720;37.606;2022-10-23T09:06:43;23.23;;;12.52;;
74495;SDS011;62979;55.720;37.606;2022-10-23T09:09:30;26.08;;;12.80;;
74495;SDS011;62979;55.720;37.606;2022-10-23T09:12:26;22.63;;;12.68;;
74495;SDS011;62979;55.720;37.606;2022-10-23T09:17:54;24.67;;;12.38;;
74495;SDS011;62979;55.720;37.606;2022-10-23T09:20:26;28.30;;;15.60;;
74495;SDS011;62979;55.720;37.606;2022-10-23T09:22:59;26.15;;;12.00;;
74495;SDS011;62979;55.720;37.606;2022-10-23T09:25:30;24.83;;;13.88;;
74495;SDS011;62979;55.720;37.606;2022-10-23T09:28:04;22.27;;;11.52;;
74495;SDS011;62979;55.720;37.606;2022-10-23T09:30:32;23.08;;;11.85;;
74495;SDS011;62979;55.720;37.606;2022-10-23T09:33:12;25.38;;;12.23;;
74495;SDS011;62979;55.720;37.606;2022-10-23T09:35:50;24.38;;;11.27;;
74495;SDS011;62979;55.720;37.606;2022-10-23T09:38:24;23.60;;;11.80;;
74495;SDS011;62979;55.720;37.606;2022-10-23T09:40:55;20.48;;;11.60;;
74495;SDS011;62979;55.720;37.606;2022-10-23T09:43:28;26.67;;;12.57;;
74495;SDS011;62979;55.720;37.606;2022-10-23T09:45:55;23.92;;;13.85;;
74495;SDS011;62979;55.720;37.606;2022-10-23T09:48:25;26.27;;;13.07;;
74495;SDS011;62979;55.720;37.606;2022-10-23T09:50:53;25.08;;;13.02;;
74495;SDS011;62979;55.720;37.606;2022-10-23T09:53:28;26.85;;;13.07;;
74495;SDS011;62979;55.720;37.606;2022-10-23T09:56:01;32.10;;;14.43;;
74495;SDS011;62979;55.720;37.606;2022-10-23T09:58:38;28.90;;;12.70;;
74495;SDS011;62979;55.720;37.606;2022-10-23T10:01:24;30.23;;;13.15;;
74495;SDS011;62979;55.720;37.606;2022-10-23T10:03:53;29.30;;;13.25;;
74495;SDS011;62979;55.720;37.606;2022-10-23T10:06:21;26.42;;;12.70;;
74495;SDS011;62979;55.720;37.606;2022-10-23T10:08:51;29.88;;;13.63;;
74495;SDS011;62979;55.720;37.606;2022-10-23T10:11:24;27.67;;;13.95;;
74495;SDS011;62979;55.720;37.606;2022-10-23T10:14:07;24.70;;;12.73;;
74495;SDS011;62979;55.720;37.606;2022-10-23T10:17:07;27.05;;;14.63;;
74495;SDS011;62979;55.720;37.606;2022-10-23T10:23:05;23.67;;;11.68;;
74495;SDS011;62979;55.720;37.606;2022-10-23T10:25:43;29.05;;;12.65;;
74495;SDS011;62979;55.720;37.606;2022-10-23T10:28:27;28.38;;;14.07;;
74495;SDS011;62979;55.720;37.606;2022-10-23T10:31:14;24.20;;;10.07;;
74495;SDS011;62979;55.720;37.606;2022-10-23T10:33:54;26.52;;;12.55;;
74495;SDS011;62979;55.720;37.606;2022-10-23T10:39:16;25.77;;;13.50;;
74495;SDS011;62979;55.720;37.606;2022-10-23T10:42:13;30.73;;;13.77;;
74495;SDS011;62979;55.720;37.606;2022-10-23T10:45:04;22.83;;;11.45;;
74495;SDS011;62979;55.720;37.606;2022-10-23T10:47:48;26.50;;;11.93;;
74495;SDS011;62979;55.720;37.606;2022-10-23T10:53:13;31.30;;;12.50;;
74495;SDS011;62979;55.720;37.606;2022-10-23T10:55:49;25.38;;;11.75;;
74495;SDS011;62979;55.720;37.606;2022-10-23T10:58:23;28.73;;;12.70;;
74495;SDS011;62979;55.720;37.606;2022-10-23T11:01:04;27.73;;;12.98;;
74495;SDS011;62979;55.720;37.606;2022-10-23T11:03:44;28.65;;;13.07;;
74495;SDS011;62979;55.720;37.606;2022-10-23T11:06:17;26.95;;;13.07;;
74495;SDS011;62979;55.720;37.606;2022-10-23T11:08:49;26.83;;;13.60;;
74495;SDS011;62979;55.720;37.606;2022-10-23T11:11:17;26.80;;;12.23;;
74495;SDS011;62979;55.720;37.606;2022-10-23T11:13:50;27.73;;;13.38;;
74495;SDS011;62979;55.720;37.606;2022-10-23T11:18:52;24.23;;;11.63;;
74495;SDS011;62979;55.720;37.606;2022-10-23T11:21:33;24.23;;;12.85;;
74495;SDS011;62979;55.720;37.606;2022-10-23T11:24:12;29.08;;;14.00;;
74495;SDS011;62979;55.720;37.606;2022-10-23T11:30:06;20.67;;;11.35;;
74495;SDS011;62979;55.720;37.606;2022-10-23T11:32:54;27.48;;;12.55;;
74495;SDS011;62979;55.720;37.606;2022-10-23T11:35:59;28.60;;;11.63;;
74495;SDS011;62979;55.720;37.606;2022-10-23T11:38:38;21.98;;;12.68;;
74495;SDS011;62979;55.720;37.606;2022-10-23T11:41:15;30.42;;;13.27;;
74495;SDS011;62979;55.720;37.606;2022-10-23T11:43:47;21.42;;;10.35;;
74495;SDS011;62979;55.720;37.606;2022-10-23T11:46:28;31.52;;;14.20;;
74495;SDS011;62979;55.720;37.606;2022-10-23T11:48:58;25.40;;;13.48;;
74495;SDS011;62979;55.720;37.606;2022-10-23T11:51:29;28.23;;;14.07;;
74495;SDS011;62979;55.720;37.606;2022-10-23T11:54:06;24.98;;;12.60;;
74495;SDS011;62979;55.720;37.606;2022-10-23T11:56:52;26.17;;;12.90;;
74495;SDS011;62979;55.720;37.606;2022-10-23T11:59:31;27.17;;;13.40;;
74495;SDS011;62979;55.720;37.606;2022-10-23T12:02:02;25.00;;;12.35;;
74495;SDS011;62979;55.720;37.606;2022-10-23T12:04:50;27.63;;;12.75;;
74495;SDS011;62979;55.720;37.606;2022-10-23T12:07:21;25.10;;;13.27;;
74495;SDS011;62979;55.720;37.606;2022-10-23T12:09:54;52.53;;;15.88;;
74495;SDS011;62979;55.720;37.606;2022-10-23T12:12:26;25.30;;;14.07;;
74495;SDS011;62979;55.720;37.606;2022-10-23T12:15:08;25.63;;;13.43;;
74495;SDS011;62979;55.720;37.606;2022-10-23T12:17:47;25.90;;;12.93;;
74495;SDS011;62979;55.720;37.606;2022-10-23T12:20:21;29.50;;;13.95;;
74495;SDS011;62979;55.720;37.606;2022-10-23T12:23:09;30.67;;;14.25;;
74495;SDS011;62979;55.720;37.606;2022-10-23T12:26:06;21.95;;;12.32;;
74495;SDS011;62979;55.720;37.606;2022-10-23T12:29:07;32.78;;;12.07;;
74495;SDS011;62979;55.720;37.606;2022-10-23T12:31:50;26.90;;;13.38;;
74495;SDS011;62979;55.720;37.606;2022-10-23T12:34:32;29.73;;;13.27;;
74495;SDS011;62979;55.720;37.606;2022-10-23T12:40:21;27.80;;;13.98;;
74495;SDS011;62979;55.720;37.606;2022-10-23T12:42:54;26.25;;;13.35;;
74495;SDS011;62979;55.720;37.606;2022-10-23T12:45:25;24.75;;;12.50;;
74495;SDS011;62979;55.720;37.606;2022-10-23T12:47:55;28.27;;;13.80;;
74495;SDS011;62979;55.720;37.606;2022-10-23T12:50:23;25.35;;;12.80;;
74495;SDS011;62979;55.720;37.606;2022-10-23T12:52:53;29.65;;;13.55;;
74495;SDS011;62979;55.720;37.606;2022-10-23T12:55:24;28.05;;;14.57;;
74495;SDS011;62979;55.720;37.606;2022-10-23T12:57:55;28.85;;;14.02;;
74495;SDS011;62979;55.720;37.606;2022-10-23T13:00:23;27.92;;;14.68;;
74495;SDS011;62979;55.720;37.606;2022-10-23T13:02:58;32.33;;;15.30;;
74495;SDS011;62979;55.720;37.606;2022-10-23T13:05:27;30.35;;;15.40;;
74495;SDS011;62979;55.720;37.606;2022-10-23T13:07:57;31.75;;;14.45;;
74495;SDS011;62979;55.720;37.606;2022-10-23T13:10:29;29.55;;;15.00;;
74495;SDS011;62979;55.720;37.606;2022-10-23T13:12:57;27.08;;;12.63;;
74495;SDS011;62979;55.720;37.606;2022-10-23T13:15:35;27.83;;;14.68;;
74495;SDS011;62979;55.720;37.606;2022-10-23T13:18:04;26.77;;;13.07;;
74495;SDS011;62979;55.720;37.606;2022-10-23T13:20:34;29.00;;;15.13;;
74495;SDS011;62979;55.720;37.606;2022-10-23T13:23:10;27.65;;;15.02;;
74495;SDS011;62979;55.720;37.606;2022-10-23T13:25:52;30.52;;;14.05;;
74495;SDS011;62979;55.720;37.606;2022-10-23T13:28:22;24.88;;;14.88;;
74495;SDS011;62979;55.720;37.606;2022-10-23T13:31:21;30.52;;;14.35;;
74495;SDS011;62979;55.720;37.606;2022-10-23T13:34:04;31.35;;;14.43;;
74495;SDS011;62979;55.720;37.606;2022-10-23T13:36:54;28.83;;;15.05;;
74495;SDS011;62979;55.720;37.606;2022-10-23T13:39:26;28.42;;;16.30;;
74495;SDS011;62979;55.720;37.606;2022-10-23T13:41:57;28.60;;;14.52;;
74495;SDS011;62979;55.720;37.606;2022-10-23T13:44:36;29.00;;;13.82;;
74495;SDS011;62979;55.720;37.606;2022-10-23T13:47:04;25.27;;;14.00;;
74495;SDS011;62979;55.720;37.606;2022-10-23T13:49:34;26.23;;;14.18;;
74495;SDS011;62979;55.720;37.606;2022-10-23T13:52:02;27.95;;;13.52;;
74495;SDS011;62979;55.720;37.606;2022-10-23T13:54:29;27.75;;;14.32;;
74495;SDS011;62979;55.720;37.606;2022-10-23T13:56:57;35.38;;;16.42;;
74495;SDS011;62979;55.720;37.606;2022-10-23T13:59:24;28.15;;;14.02;;
74495;SDS011;62979;55.720;37.606;2022-10-23T14:01:51;27.35;;;14.10;;
74495;SDS011;62979;55.720;37.606;2022-10-23T14:04:19;21.80;;;13.07;;
74495;SDS011;62979;55.720;37.606;2022-10-23T14:06:47;24.85;;;13.30;;
74495;SDS011;62979;55.720;37.606;2022-10-23T14:09:15;26.85;;;13.45;;
74495;SDS011;62979;55.720;37.606;2022-10-23T14:11:43;25.63;;;13.00;;
74495;SDS011;62979;55.720;37.606;2022-10-23T14:16:40;21.23;;;12.30;;
74495;SDS011;62979;55.720;37.606;2022-10-23T14:19:07;29.85;;;13.73;;
74495;SDS011;62979;55.720;37.606;2022-10-23T14:21:35;25.88;;;13.20;;
74495;SDS011;62979;55.720;37.606;2022-10-23T14:24:02;33.92;;;14.77;;
74495;SDS011;62979;55.720;37.606;2022-10-23T14:26:30;28.60;;;13.98;;
74495;SDS011;62979;55.720;37.606;2022-10-23T14:28:57;23.40;;;12.57;;
74495;SDS011;62979;55.720;37.606;2022-10-23T14:31:25;26.02;;;12.02;;
74495;SDS011;62979;55.720;37.606;2022-10-23T14:33:53;20.08;;;12.43;;
74495;SDS011;62979;55.720;37.606;2022-10-23T14:36:23;20.55;;;11.00;;
74495;SDS011;62979;55.720;37.606;2022-10-23T14:38:53;24.35;;;13.20;;
74495;SDS011;62979;55.720;37.606;2022-10-23T14:41:22;20.58;;;11.95;;
74495;SDS011;62979;55.720;37.606;2022-10-23T14:43:52;21.65;;;10.98;;
74495;SDS011;62979;55.720;37.606;2022-10-23T14:46:22;21.77;;;11.30;;
74495;SDS011;62979;55.720;37.606;2022-10-23T14:48:52;17.83;;;10.60;;
74495;SDS011;62979;55.720;37.606;2022-10-23T14:51:20;17.80;;;10.90;;
74495;SDS011;62979;55.720;37.606;2022-10-23T14:53:53;17.98;;;10.13;;
74495;SDS011;62979;55.720;37.606;2022-10-23T14:56:23;17.38;;;10.70;;
74495;SDS011;62979;55.720;37.606;2022-10-23T14:58:50;24.80;;;10.77;;
74495;SDS011;62979;55.720;37.606;2022-10-23T15:01:18;23.05;;;12.88;;
74495;SDS011;62979;55.720;37.606;2022-10-23T15:03:45;22.02;;;11.27;;
74495;SDS011;62979;55.720;37.606;2022-10-23T15:06:17;20.08;;;10.65;;
74495;SDS011;62979;55.720;37.606;2022-10-23T15:08:44;20.40;;;11.73;;
74495;SDS011;62979;55.720;37.606;2022-10-23T15:11:11;21.50;;;12.73;;
74495;SDS011;62979;55.720;37.606;2022-10-23T15:13:38;16.52;;;11.15;;
74495;SDS011;62979;55.720;37.606;2022-10-23T15:16:06;18.67;;;11.00;;
74495;SDS011;62979;55.720;37.606;2022-10-23T15:18:35;21.08;;;10.88;;
74495;SDS011;62979;55.720;37.606;2022-10-23T15:21:03;17.75;;;10.38;;
74495;SDS011;62979;55.720;37.606;2022-10-23T15:23:35;17.67;;;9.82;;
74495;SDS011;62979;55.720;37.606;2022-10-23T15:26:05;19.58;;;10.75;;
74495;SDS011;62979;55.720;37.606;2022-10-23T15:28:35;20.95;;;9.98;;
74495;SDS011;62979;55.720;37.606;2022-10-23T15:31:02;15.68;;;10.10;;
74495;SDS011;62979;55.720;37.606;2022-10-23T15:33:30;18.40;;;10.20;;